createdAt,value
2022-10-01T00:00:05.083Z,10.88
2022-10-01T00:02:38.179Z,11.75
2022-10-01T00:07:39.159Z,10.88
2022-10-01T00:10:06.686Z,11.13
2022-10-01T00:12:34.230Z,11.13
2022-10-01T00:15:05.518Z,14.07
2022-10-01T00:17:33.823Z,9.43
2022-10-01T00:20:00.492Z,10.93
2022-10-01T00:22:26.981Z,11.05
2022-10-01T00:24:53.487Z,9.60
2022-10-01T00:27:20.150Z,8.40
2022-10-01T00:29:46.651Z,10.10
2022-10-01T00:32:13.179Z,11.02
2022-10-01T00:34:39.672Z,8.95
2022-10-01T00:37:06.179Z,10.48
2022-10-01T00:39:32.677Z,12.52
2022-10-01T00:41:59.164Z,9.55
2022-10-01T00:44:35.748Z,9.38
2022-10-01T00:47:31.711Z,9.93
2022-10-01T00:50:07.026Z,9.88
2022-10-01T00:52:35.121Z,11.65
2022-10-01T00:57:31.438Z,10.80
2022-10-01T00:59:59.961Z,9.23
2022-10-01T01:02:26.649Z,9.63
2022-10-01T01:04:53.536Z,10.00
2022-10-01T01:07:20.505Z,9.23
2022-10-01T01:09:47.927Z,9.10
2022-10-01T01:12:36.404Z,8.63
2022-10-01T01:15:17.525Z,7.85
2022-10-01T01:17:50.076Z,9.43
2022-10-01T01:20:50.233Z,7.25
2022-10-01T01:23:16.663Z,8.57
2022-10-01T01:25:56.437Z,7.13
2022-10-01T01:28:34.431Z,9.13
2022-10-01T01:31:04.829Z,9.75
2022-10-01T01:33:34.321Z,7.97
2022-10-01T01:36:08.398Z,8.63
2022-10-01T01:38:38.615Z,8.95
2022-10-01T01:41:06.320Z,8.95
2022-10-01T01:43:38.511Z,8.93
2022-10-01T01:46:06.287Z,9.10
2022-10-01T01:48:36.505Z,8.40
2022-10-01T01:51:10.619Z,8.40
2022-10-01T01:53:38.037Z,10.48
2022-10-01T01:56:06.038Z,9.13
2022-10-01T02:00:59.361Z,7.95
2022-10-01T02:03:26.924Z,9.93
2022-10-01T02:06:21.231Z,8.38
2022-10-01T02:09:18.418Z,9.38
2022-10-01T02:11:55.534Z,7.93
2022-10-01T02:14:55.021Z,9.82
2022-10-01T02:17:29.533Z,7.70
2022-10-01T02:20:03.284Z,8.95
2022-10-01T02:22:43.659Z,9.50
2022-10-01T02:25:11.343Z,8.32
2022-10-01T02:27:53.543Z,6.85
2022-10-01T02:30:20.184Z,8.43
2022-10-01T02:32:47.649Z,8.40
2022-10-01T02:35:17.174Z,7.28
2022-10-01T02:37:45.113Z,8.07
2022-10-01T02:40:15.925Z,7.07
2022-10-01T02:42:46.368Z,7.68
2022-10-01T02:45:13.982Z,6.93
2022-10-01T02:47:43.583Z,6.55
2022-10-01T02:50:10.190Z,6.88
2022-10-01T02:52:42.724Z,8.30
2022-10-01T02:55:13.664Z,8.52
2022-10-01T02:57:40.262Z,8.23
2022-10-01T03:00:16.022Z,13.73
2022-10-01T03:02:42.600Z,9.57
2022-10-01T03:05:09.382Z,7.25
2022-10-01T03:07:36.418Z,6.10
2022-10-01T03:10:04.755Z,7.45
2022-10-01T03:12:31.379Z,8.32
2022-10-01T03:14:57.884Z,7.95
2022-10-01T03:17:24.588Z,7.25
2022-10-01T03:19:51.240Z,7.25
2022-10-01T03:22:19.950Z,5.20
2022-10-01T03:24:46.868Z,7.32
2022-10-01T03:27:13.356Z,8.60
2022-10-01T03:29:39.888Z,6.95
2022-10-01T03:32:06.694Z,5.78
2022-10-01T03:34:33.197Z,5.43
2022-10-01T03:36:59.700Z,6.63
2022-10-01T03:39:26.183Z,5.47
2022-10-01T03:41:52.652Z,5.47
2022-10-01T03:44:19.162Z,6.57
2022-10-01T03:46:45.715Z,5.60
2022-10-01T03:49:12.219Z,5.50
2022-10-01T03:51:38.798Z,5.88
2022-10-01T03:54:06.652Z,5.13
2022-10-01T03:56:33.939Z,5.25
2022-10-01T03:59:00.534Z,7.63
2022-10-01T04:01:27.376Z,8.52
2022-10-01T04:03:53.906Z,5.32
2022-10-01T04:06:20.410Z,5.25
2022-10-01T04:08:46.936Z,5.70
2022-10-01T04:11:13.566Z,6.78
2022-10-01T04:13:40.079Z,9.85
2022-10-01T04:16:07.168Z,11.32
2022-10-01T04:18:34.174Z,13.52
2022-10-01T04:21:00.866Z,12.45
2022-10-01T04:23:27.558Z,11.30
2022-10-01T04:25:54.042Z,10.02
2022-10-01T04:28:20.665Z,9.23
2022-10-01T04:30:47.325Z,7.20
2022-10-01T04:33:17.041Z,6.93
2022-10-01T04:35:43.993Z,4.80
2022-10-01T04:38:16.448Z,5.05
2022-10-01T04:40:43.187Z,6.40
2022-10-01T04:43:11.203Z,3.75
2022-10-01T04:48:05.159Z,6.35
2022-10-01T04:50:31.947Z,6.00
2022-10-01T04:52:58.489Z,4.30
2022-10-01T04:55:25.101Z,4.95
2022-10-01T04:57:51.658Z,5.05
2022-10-01T05:00:26.912Z,5.18
2022-10-01T05:02:54.047Z,4.90
2022-10-01T05:05:22.427Z,5.95
2022-10-01T05:07:49.683Z,5.05
2022-10-01T05:10:21.046Z,3.80
2022-10-01T05:12:48.564Z,5.47
2022-10-01T05:15:16.101Z,4.15
2022-10-01T05:17:43.084Z,4.70
2022-10-01T05:20:16.475Z,4.85
2022-10-01T05:22:44.547Z,5.45
2022-10-01T05:27:37.766Z,3.55
2022-10-01T05:30:05.392Z,3.38
2022-10-01T05:32:32.096Z,5.20
2022-10-01T05:34:58.558Z,4.00
2022-10-01T05:37:25.075Z,3.92
2022-10-01T05:39:51.562Z,4.68
2022-10-01T05:42:18.045Z,2.85
2022-10-01T05:44:47.145Z,3.10
2022-10-01T05:47:14.093Z,3.13
2022-10-01T05:49:44.675Z,2.72
2022-10-01T05:52:11.983Z,3.65
2022-10-01T05:54:38.606Z,2.88
2022-10-01T05:57:05.849Z,3.47
2022-10-01T05:59:32.370Z,3.80
2022-10-01T06:01:59.037Z,3.15
2022-10-01T06:04:25.960Z,2.75
2022-10-01T06:06:56.334Z,3.97
2022-10-01T06:09:22.880Z,7.22
2022-10-01T06:11:49.829Z,3.72
2022-10-01T06:14:16.814Z,3.85
2022-10-01T06:16:43.582Z,3.35
2022-10-01T06:19:10.301Z,2.72
2022-10-01T06:21:37.400Z,3.25
2022-10-01T06:24:04.301Z,4.28
2022-10-01T06:26:31.176Z,10.50
2022-10-01T06:28:57.701Z,3.38
2022-10-01T06:31:24.354Z,4.47
2022-10-01T06:33:50.872Z,3.47
2022-10-01T06:36:17.474Z,4.28
2022-10-01T06:38:44.107Z,3.72
2022-10-01T06:41:10.961Z,2.92
2022-10-01T06:43:37.499Z,5.18
2022-10-01T06:46:05.273Z,5.15
2022-10-01T06:48:32.613Z,4.20
2022-10-01T06:50:59.453Z,5.63
2022-10-01T06:53:28.134Z,4.53
2022-10-01T06:55:54.959Z,3.70
2022-10-01T06:58:26.150Z,4.93
2022-10-01T07:00:58.302Z,3.92
2022-10-01T07:03:24.875Z,5.53
2022-10-01T07:05:51.438Z,3.42
2022-10-01T07:08:18.507Z,4.78
2022-10-01T07:10:45.528Z,3.55
2022-10-01T07:13:15.019Z,9.07
2022-10-01T07:15:41.521Z,4.57
2022-10-01T07:18:11.447Z,6.00
2022-10-01T07:20:41.850Z,6.30
2022-10-01T07:23:14.740Z,3.42
2022-10-01T07:25:42.104Z,8.23
2022-10-01T07:28:16.287Z,6.10
2022-10-01T07:30:47.428Z,6.68
2022-10-01T07:33:22.969Z,5.05
2022-10-01T07:35:49.500Z,5.88
2022-10-01T07:38:16.616Z,4.60
2022-10-01T07:40:43.233Z,6.38
2022-10-01T07:43:09.843Z,10.40
2022-10-01T07:45:36.487Z,5.30
2022-10-01T07:48:04.334Z,7.32
2022-10-01T07:50:30.896Z,4.80
2022-10-01T07:52:58.724Z,5.57
2022-10-01T07:55:26.887Z,4.68
2022-10-01T07:57:55.077Z,8.38
2022-10-01T08:00:23.063Z,5.97
2022-10-01T08:05:19.041Z,6.80
2022-10-01T08:07:46.618Z,8.40
2022-10-01T08:10:13.794Z,5.30
2022-10-01T08:12:42.659Z,7.65
2022-10-01T08:15:10.901Z,6.75
2022-10-01T08:17:40.502Z,7.53
2022-10-01T08:20:08.731Z,4.90
2022-10-01T08:22:39.773Z,4.85
2022-10-01T08:25:08.659Z,5.38
2022-10-01T08:27:35.738Z,8.52
2022-10-01T08:30:02.336Z,7.68
2022-10-01T08:32:28.955Z,5.72
2022-10-01T08:34:57.578Z,6.00
2022-10-01T08:37:28.006Z,8.45
2022-10-01T08:39:55.278Z,5.20
2022-10-01T08:42:36.550Z,5.20
2022-10-01T08:45:09.817Z,6.20
2022-10-01T08:47:39.301Z,4.32
2022-10-01T08:50:13.228Z,6.07
2022-10-01T08:52:48.231Z,5.40
2022-10-01T08:55:19.520Z,7.78
2022-10-01T08:57:49.986Z,7.88
2022-10-01T09:00:18.133Z,8.70
2022-10-01T09:02:46.430Z,8.77
2022-10-01T09:05:21.105Z,5.63
2022-10-01T09:08:15.567Z,9.05
2022-10-01T09:10:53.783Z,7.68
2022-10-01T09:13:41.681Z,5.70
2022-10-01T09:16:31.370Z,8.32
2022-10-01T09:19:08.856Z,5.55
2022-10-01T09:21:43.428Z,5.00
2022-10-01T09:24:16.475Z,4.75
2022-10-01T09:26:47.484Z,6.95
2022-10-01T09:29:17.621Z,5.47
2022-10-01T09:31:47.188Z,4.80
2022-10-01T09:34:28.910Z,8.40
2022-10-01T09:37:05.545Z,7.57
2022-10-01T09:39:38.300Z,3.75
2022-10-01T09:42:04.917Z,5.22
2022-10-01T09:44:32.294Z,4.43
2022-10-01T09:46:58.868Z,7.00
2022-10-01T09:49:43.733Z,5.90
2022-10-01T09:52:15.085Z,5.60
2022-10-01T09:54:57.519Z,8.93
2022-10-01T09:57:32.042Z,5.95
2022-10-01T10:00:17.301Z,5.07
2022-10-01T10:02:49.273Z,8.80
2022-10-01T10:05:22.117Z,6.88
2022-10-01T10:07:54.275Z,4.68
2022-10-01T10:10:27.159Z,6.95
2022-10-01T10:13:04.751Z,4.43
2022-10-01T10:15:32.567Z,4.28
2022-10-01T10:18:08.507Z,3.70
2022-10-01T10:20:40.694Z,4.75
2022-10-01T10:23:19.078Z,6.22
2022-10-01T10:26:02.697Z,4.05
2022-10-01T10:28:43.320Z,3.65
2022-10-01T10:31:15.359Z,3.33
2022-10-01T10:33:51.124Z,4.30
2022-10-01T10:36:19.613Z,4.32
2022-10-01T10:38:49.633Z,5.72
2022-10-01T10:41:19.514Z,15.88
2022-10-01T10:43:48.807Z,4.28
2022-10-01T10:46:46.477Z,4.68
2022-10-01T10:49:29.953Z,7.60
2022-10-01T10:51:58.147Z,6.25
2022-10-01T10:54:29.229Z,3.97
2022-10-01T10:57:36.702Z,3.92
2022-10-01T11:00:24.678Z,3.22
2022-10-01T11:02:59.638Z,2.65
2022-10-01T11:05:30.013Z,4.22
2022-10-01T11:07:59.514Z,1.95
2022-10-01T11:10:44.333Z,3.40
2022-10-01T11:13:18.499Z,2.33
2022-10-01T11:15:51.707Z,3.63
2022-10-01T11:18:55.969Z,3.05
2022-10-01T11:21:28.481Z,2.05
2022-10-01T11:24:07.081Z,2.80
2022-10-01T11:26:45.795Z,3.35
2022-10-01T11:29:25.876Z,3.83
2022-10-01T11:31:52.522Z,1.52
2022-10-01T11:34:22.093Z,2.35
2022-10-01T11:36:59.071Z,2.10
2022-10-01T11:39:26.942Z,1.23
2022-10-01T11:42:02.700Z,3.70
2022-10-01T11:44:52.433Z,1.67
2022-10-01T11:47:36.306Z,2.10
2022-10-01T11:50:06.218Z,8.38
2022-10-01T11:52:43.032Z,4.57
2022-10-01T11:55:32.640Z,2.15
2022-10-01T11:58:23.519Z,2.10
2022-10-01T12:00:58.956Z,1.80
2022-10-01T12:03:30.275Z,1.63
2022-10-01T12:05:57.403Z,1.92
2022-10-01T12:08:27.998Z,1.15
2022-10-01T12:10:59.231Z,1.80
2022-10-01T12:13:35.644Z,3.78
2022-10-01T12:16:11.934Z,2.33
2022-10-01T12:18:52.435Z,4.07
2022-10-01T12:21:34.030Z,1.70
2022-10-01T12:24:05.189Z,1.48
2022-10-01T12:26:45.806Z,1.77
2022-10-01T12:29:27.968Z,1.85
2022-10-01T12:32:04.289Z,1.95
2022-10-01T12:35:27.882Z,0.80
2022-10-01T12:38:36.896Z,2.70
2022-10-01T12:41:22.555Z,2.08
2022-10-01T12:44:07.953Z,3.08
2022-10-01T12:47:06.631Z,0.60
2022-10-01T12:49:40.598Z,1.33
2022-10-01T12:52:20.142Z,2.53
2022-10-01T12:54:46.759Z,2.58
2022-10-01T12:57:26.246Z,2.42
2022-10-01T13:00:00.186Z,1.33
2022-10-01T13:02:56.829Z,1.30
2022-10-01T13:05:29.309Z,1.55
2022-10-01T13:08:15.847Z,3.00
2022-10-01T13:11:20.804Z,1.40
2022-10-01T13:13:51.513Z,1.83
2022-10-01T13:16:42.079Z,1.40
2022-10-01T13:19:30.755Z,2.60
2022-10-01T13:22:35.247Z,2.40
2022-10-01T13:25:32.944Z,1.05
2022-10-01T13:28:07.895Z,1.40
2022-10-01T13:30:56.552Z,2.08
2022-10-01T13:33:38.851Z,1.27
2022-10-01T13:36:07.729Z,3.90
2022-10-01T13:38:44.206Z,1.20
2022-10-01T13:41:24.590Z,1.80
2022-10-01T13:44:28.089Z,3.47
2022-10-01T13:47:09.988Z,2.42
2022-10-01T13:49:37.829Z,3.28
2022-10-01T13:54:38.164Z,3.58
2022-10-01T13:57:09.547Z,1.60
2022-10-01T13:59:37.508Z,2.88
2022-10-01T14:02:29.759Z,1.90
2022-10-01T14:05:06.112Z,1.25
2022-10-01T14:07:36.156Z,1.50
2022-10-01T14:10:03.093Z,1.70
2022-10-01T14:12:50.406Z,2.88
2022-10-01T14:15:39.156Z,1.60
2022-10-01T14:18:11.884Z,1.65
2022-10-01T14:21:05.010Z,3.53
2022-10-01T14:24:06.686Z,1.73
2022-10-01T14:26:59.528Z,1.20
2022-10-01T14:29:52.186Z,2.03
2022-10-01T14:32:50.860Z,1.48
2022-10-01T14:35:24.450Z,1.08
2022-10-01T14:37:51.559Z,1.48
2022-10-01T14:40:22.025Z,3.70
2022-10-01T14:43:01.799Z,1.65
2022-10-01T14:45:29.506Z,1.95
2022-10-01T14:48:04.659Z,3.60
2022-10-01T14:50:34.200Z,0.93
2022-10-01T14:53:00.804Z,1.13
2022-10-01T14:55:27.690Z,0.85
2022-10-01T14:57:55.683Z,1.45
2022-10-01T15:00:29.801Z,1.52
2022-10-01T15:03:15.148Z,1.98
2022-10-01T15:05:42.408Z,1.85
2022-10-01T15:08:19.219Z,3.17
2022-10-01T15:11:07.033Z,2.33
2022-10-01T15:13:39.083Z,1.00
2022-10-01T15:16:11.623Z,4.22
2022-10-01T15:18:42.087Z,2.35
2022-10-01T15:21:16.583Z,1.77
2022-10-01T15:23:43.325Z,3.17
2022-10-01T15:26:14.060Z,1.10
2022-10-01T15:28:40.619Z,2.20
2022-10-01T15:31:07.792Z,0.95
2022-10-01T15:33:40.431Z,2.15
2022-10-01T15:36:16.313Z,1.73
2022-10-01T15:38:44.464Z,1.73
2022-10-01T15:41:31.473Z,0.63
2022-10-01T15:44:04.790Z,4.35
2022-10-01T15:46:36.218Z,2.08
2022-10-01T15:49:27.963Z,1.42
2022-10-01T15:52:25.833Z,4.68
2022-10-01T15:55:00.357Z,6.82
2022-10-01T15:57:35.395Z,1.65
2022-10-01T16:00:03.567Z,1.65
2022-10-01T16:02:34.967Z,1.27
2022-10-01T16:05:07.680Z,3.92
2022-10-01T16:07:37.329Z,2.38
2022-10-01T16:10:38.115Z,1.20
2022-10-01T16:13:42.622Z,1.25
2022-10-01T16:16:21.403Z,2.88
2022-10-01T16:18:56.941Z,2.67
2022-10-01T16:21:31.677Z,4.85
2022-10-01T16:24:04.922Z,3.00
2022-10-01T16:26:46.461Z,1.67
2022-10-01T16:29:15.995Z,1.67
2022-10-01T16:32:02.856Z,1.15
2022-10-01T16:34:39.000Z,2.85
2022-10-01T16:37:15.981Z,1.33
2022-10-01T16:40:04.579Z,0.88
2022-10-01T16:42:48.455Z,1.30
2022-10-01T16:45:18.575Z,3.38
2022-10-01T16:47:48.233Z,0.65
2022-10-01T16:50:23.288Z,6.00
2022-10-01T16:53:09.724Z,2.42
2022-10-01T16:55:42.831Z,2.42
2022-10-01T16:58:19.593Z,1.48
2022-10-01T17:00:51.316Z,3.95
2022-10-01T17:03:21.002Z,1.85
2022-10-01T17:05:54.266Z,2.92
2022-10-01T17:08:27.208Z,2.25
2022-10-01T17:11:12.451Z,1.45
2022-10-01T17:13:41.943Z,1.77
2022-10-01T17:16:24.537Z,3.58
2022-10-01T17:19:01.147Z,1.45
2022-10-01T17:21:33.942Z,2.00
2022-10-01T17:24:14.731Z,5.72
2022-10-01T17:26:45.691Z,2.17
2022-10-01T17:29:18.304Z,3.25
2022-10-01T17:31:54.403Z,2.17
2022-10-01T17:34:30.897Z,3.00
2022-10-01T17:37:06.684Z,1.67
2022-10-01T17:39:53.354Z,2.35
2022-10-01T17:42:30.337Z,3.58
2022-10-01T17:45:06.086Z,1.83
2022-10-01T17:47:48.895Z,1.63
2022-10-01T17:50:19.437Z,2.42
2022-10-01T17:52:52.485Z,3.55
2022-10-01T17:55:26.855Z,2.78
2022-10-01T17:57:56.131Z,3.83
2022-10-01T18:00:27.800Z,2.17
2022-10-01T18:02:56.205Z,3.42
2022-10-01T18:05:24.090Z,2.72
2022-10-01T18:07:55.805Z,2.70
2022-10-01T18:10:27.570Z,3.80
2022-10-01T18:13:04.955Z,2.83
2022-10-01T18:15:38.861Z,3.40
2022-10-01T18:19:51.493Z,4.60
2022-10-01T18:21:15.761Z,3.30
2022-10-01T18:23:49.772Z,3.83
2022-10-01T18:26:21.796Z,2.17
2022-10-01T18:31:37.000Z,2.70
2022-10-01T18:34:21.031Z,2.65
2022-10-01T18:37:01.286Z,5.22
2022-10-01T18:39:45.326Z,4.32
2022-10-01T18:42:38.078Z,4.57
2022-10-01T18:45:24.515Z,3.60
2022-10-01T18:48:22.260Z,2.70
2022-10-01T18:54:45.289Z,4.40
2022-10-01T18:57:43.984Z,4.97
2022-10-01T19:00:34.221Z,3.95
2022-10-01T19:03:48.632Z,4.72
2022-10-01T19:06:51.012Z,4.70
2022-10-01T19:09:34.120Z,4.63
2022-10-01T19:12:24.563Z,3.25
2022-10-01T19:15:13.187Z,3.85
2022-10-01T19:18:00.204Z,3.67
2022-10-01T19:21:05.478Z,3.17
2022-10-01T19:23:41.944Z,5.57
2022-10-01T19:26:40.660Z,3.35
2022-10-01T19:29:38.892Z,3.30
2022-10-01T19:32:31.003Z,4.35
2022-10-01T19:35:26.336Z,4.18
2022-10-01T19:38:11.204Z,3.25
2022-10-01T19:41:05.793Z,3.45
2022-10-01T19:43:38.477Z,7.15
2022-10-01T19:46:23.830Z,5.50
2022-10-01T19:49:15.399Z,5.43
2022-10-01T19:52:01.656Z,4.18
2022-10-01T19:54:39.176Z,3.88
2022-10-01T19:57:33.273Z,7.65
2022-10-01T20:00:10.392Z,7.03
2022-10-01T20:02:57.357Z,7.97
2022-10-01T20:05:54.815Z,5.30
2022-10-01T20:09:05.186Z,6.60
2022-10-01T20:11:56.513Z,4.38
2022-10-01T20:15:10.236Z,4.13
2022-10-01T20:17:54.303Z,3.13
2022-10-01T20:20:27.186Z,5.18
2022-10-01T20:23:26.032Z,3.88
2022-10-01T20:26:15.248Z,4.00
2022-10-01T20:29:04.107Z,5.22
2022-10-01T20:31:55.148Z,5.40
2022-10-01T20:34:31.380Z,5.45
2022-10-01T20:37:10.714Z,5.65
2022-10-01T20:39:50.972Z,4.03
2022-10-01T20:42:37.326Z,4.40
2022-10-01T20:45:06.762Z,6.03
2022-10-01T20:47:42.633Z,5.32
2022-10-01T20:50:37.993Z,8.15
2022-10-01T20:53:20.335Z,4.93
2022-10-01T20:56:19.726Z,9.48
2022-10-01T20:58:56.490Z,3.97
2022-10-01T21:01:30.492Z,4.20
2022-10-01T21:04:10.485Z,5.47
2022-10-01T21:06:45.272Z,9.52
2022-10-01T21:09:25.235Z,7.72
2022-10-01T21:12:24.280Z,4.32
2022-10-01T21:15:08.841Z,9.07
2022-10-01T21:18:26.731Z,9.80
2022-10-01T21:21:38.260Z,5.47
2022-10-01T21:24:44.480Z,8.27
2022-10-01T21:27:32.841Z,4.50
2022-10-01T21:30:14.972Z,5.55
2022-10-01T21:33:02.595Z,7.35
2022-10-01T21:35:35.848Z,8.73
2022-10-01T21:38:28.979Z,5.55
2022-10-01T21:41:38.496Z,6.53
2022-10-01T21:44:35.881Z,6.70
2022-10-01T21:47:34.982Z,6.65
2022-10-01T21:50:10.828Z,4.25
2022-10-01T21:53:00.489Z,7.20
2022-10-01T21:55:33.172Z,3.38
2022-10-01T21:58:30.018Z,3.53
2022-10-01T22:01:15.464Z,9.65
2022-10-01T22:04:41.734Z,6.43
2022-10-01T22:07:40.628Z,7.30
2022-10-01T22:10:16.687Z,5.18
2022-10-01T22:12:46.807Z,3.63
2022-10-01T22:15:55.055Z,8.38
2022-10-01T22:18:33.482Z,12.30
2022-10-01T22:21:18.096Z,5.80
2022-10-01T22:24:04.224Z,5.00
2022-10-01T22:26:40.764Z,5.80
2022-10-01T22:29:15.694Z,8.45
2022-10-01T22:31:46.519Z,8.80
2022-10-01T22:34:20.529Z,8.23
2022-10-01T22:37:00.183Z,6.55
2022-10-01T22:39:38.009Z,6.05
2022-10-01T22:42:17.325Z,5.45
2022-10-01T22:44:48.249Z,7.07
2022-10-01T22:48:03.128Z,7.28
2022-10-01T22:51:11.843Z,4.70
2022-10-01T22:54:03.988Z,5.57
2022-10-01T22:56:47.364Z,3.78
2022-10-01T22:59:46.315Z,4.07
2022-10-01T23:02:41.371Z,7.20
2022-10-01T23:05:15.880Z,7.55
2022-10-01T23:08:05.254Z,7.80
2022-10-01T23:10:33.626Z,4.72
2022-10-01T23:13:05.115Z,6.50
2022-10-01T23:15:46.496Z,6.55
2022-10-01T23:18:34.372Z,5.68
2022-10-01T23:21:26.166Z,9.73
2022-10-01T23:24:21.923Z,5.82
2022-10-01T23:26:57.247Z,6.20
2022-10-01T23:29:42.945Z,6.93
2022-10-01T23:32:31.909Z,7.18
2022-10-01T23:35:13.065Z,4.95
2022-10-01T23:38:07.569Z,5.78
2022-10-01T23:40:38.618Z,7.18
2022-10-01T23:43:33.127Z,6.40
2022-10-01T23:46:06.946Z,8.48
2022-10-01T23:48:57.673Z,5.13
2022-10-01T23:51:27.449Z,10.20
2022-10-01T23:54:26.900Z,5.45
2022-10-01T23:57:02.986Z,8.30
2022-10-01T23:59:39.607Z,5.32
